sensor_id;sensor_type;location;lat;lon;timestamp;pressure;altitude;pressure_sealevel;temperature;humidity
38033;BME280;23841;48.524;1.342;2023-07-28T00:01:52;98529.22;;;21.39;57.45
38033;BME280;23841;48.524;1.342;2023-07-28T00:04:18;98531.06;;;21.38;57.27
38033;BME280;23841;48.524;1.342;2023-07-28T00:06:43;98536.47;;;21.38;57.47
38033;BME280;23841;48.524;1.342;2023-07-28T00:09:09;98535.50;;;21.39;57.35
38033;BME280;23841;48.524;1.342;2023-07-28T00:11:34;98528.38;;;21.38;57.32
38033;BME280;23841;48.524;1.342;2023-07-28T00:14:00;98530.19;;;21.38;57.33
38033;BME280;23841;48.524;1.342;2023-07-28T00:16:25;98519.38;;;21.38;57.35
38033;BME280;23841;48.524;1.342;2023-07-28T00:18:50;98523.94;;;21.37;57.59
38033;BME280;23841;48.524;1.342;2023-07-28T00:21:16;98511.28;;;21.38;57.65
38033;BME280;23841;48.524;1.342;2023-07-28T00:23:41;98514.97;;;21.37;57.22
38033;BME280;23841;48.524;1.342;2023-07-28T00:26:07;98513.13;;;21.37;57.37
38033;BME280;23841;48.524;1.342;2023-07-28T00:28:32;98522.09;;;21.38;57.33
38033;BME280;23841;48.524;1.342;2023-07-28T00:30:57;98523.22;;;21.35;57.53
38033;BME280;23841;48.524;1.342;2023-07-28T00:33:23;98523.94;;;21.37;57.55
38033;BME280;23841;48.524;1.342;2023-07-28T00:35:49;98521.25;;;21.37;57.55
38033;BME280;23841;48.524;1.342;2023-07-28T00:38:14;98510.44;;;21.37;57.39
38033;BME280;23841;48.524;1.342;2023-07-28T00:40:40;98518.53;;;21.37;57.21
38033;BME280;23841;48.524;1.342;2023-07-28T00:43:05;98515.09;;;21.35;57.29
38033;BME280;23841;48.524;1.342;2023-07-28T00:45:31;98513.25;;;21.36;57.29
38033;BME280;23841;48.524;1.342;2023-07-28T00:47:58;98516.81;;;21.36;57.16
38033;BME280;23841;48.524;1.342;2023-07-28T00:50:24;98501.59;;;21.35;57.02
38033;BME280;23841;48.524;1.342;2023-07-28T00:52:50;98505.16;;;21.36;56.73
38033;BME280;23841;48.524;1.342;2023-07-28T00:55:16;98502.44;;;21.36;56.92
38033;BME280;23841;48.524;1.342;2023-07-28T00:57:41;98505.28;;;21.34;57.10
38033;BME280;23841;48.524;1.342;2023-07-28T01:00:08;98495.31;;;21.35;57.10
38033;BME280;23841;48.524;1.342;2023-07-28T01:02:33;98500.72;;;21.35;57.01
38033;BME280;23841;48.524;1.342;2023-07-28T01:04:59;98498.91;;;21.35;56.98
38033;BME280;23841;48.524;1.342;2023-07-28T01:07:41;98502.44;;;21.36;57.01
38033;BME280;23841;48.524;1.342;2023-07-28T01:10:13;98507.84;;;21.36;57.22
38033;BME280;23841;48.524;1.342;2023-07-28T01:12:40;98505.28;;;21.34;56.91
38033;BME280;23841;48.524;1.342;2023-07-28T01:15:06;98503.31;;;21.36;57.12
38033;BME280;23841;48.524;1.342;2023-07-28T01:17:32;98499.75;;;21.36;56.95
38033;BME280;23841;48.524;1.342;2023-07-28T01:19:57;98502.44;;;21.36;56.93
38033;BME280;23841;48.524;1.342;2023-07-28T01:27:47;98501.59;;;21.35;56.88
38033;BME280;23841;48.524;1.342;2023-07-28T01:30:14;98506.13;;;21.35;56.80
38033;BME280;23841;48.524;1.342;2023-07-28T01:32:39;98506.13;;;21.35;57.29
38033;BME280;23841;48.524;1.342;2023-07-28T01:35:05;98499.03;;;21.34;57.02
38033;BME280;23841;48.524;1.342;2023-07-28T01:37:31;98499.03;;;21.34;57.13
38033;BME280;23841;48.524;1.342;2023-07-28T01:39:56;98504.44;;;21.34;57.11
38033;BME280;23841;48.524;1.342;2023-07-28T01:42:23;98505.41;;;21.33;57.05
38033;BME280;23841;48.524;1.342;2023-07-28T01:44:48;98507.97;;;21.34;57.01
38033;BME280;23841;48.524;1.342;2023-07-28T01:47:14;98498.16;;;21.33;57.06
38033;BME280;23841;48.524;1.342;2023-07-28T01:49:39;98504.53;;;21.32;57.08
38033;BME280;23841;48.524;1.342;2023-07-28T01:52:05;98503.56;;;21.33;57.07
38033;BME280;23841;48.524;1.342;2023-07-28T01:54:30;98501.81;;;21.32;57.22
38033;BME280;23841;48.524;1.342;2023-07-28T01:56:56;98500.84;;;21.33;57.23
38033;BME280;23841;48.524;1.342;2023-07-28T01:59:21;98498.16;;;21.33;57.08
38033;BME280;23841;48.524;1.342;2023-07-28T02:01:47;98486.50;;;21.33;57.12
38033;BME280;23841;48.524;1.342;2023-07-28T02:04:12;98495.44;;;21.33;56.93
38033;BME280;23841;48.524;1.342;2023-07-28T02:06:38;98500.00;;;21.33;57.18
38033;BME280;23841;48.524;1.342;2023-07-28T02:09:03;98486.50;;;21.33;56.84
38033;BME280;23841;48.524;1.342;2023-07-28T02:11:29;98492.75;;;21.33;56.55
38033;BME280;23841;48.524;1.342;2023-07-28T02:13:54;98491.03;;;21.32;56.56
38033;BME280;23841;48.524;1.342;2023-07-28T02:16:20;98496.41;;;21.32;56.73
38033;BME280;23841;48.524;1.342;2023-07-28T02:18:45;98502.69;;;21.33;56.64
38033;BME280;23841;48.524;1.342;2023-07-28T02:21:11;98503.69;;;21.31;57.04
38033;BME280;23841;48.524;1.342;2023-07-28T02:23:36;98504.53;;;21.32;56.94
38033;BME280;23841;48.524;1.342;2023-07-28T02:26:02;98499.13;;;21.32;57.08
38033;BME280;23841;48.524;1.342;2023-07-28T02:28:28;98493.84;;;21.30;56.90
38033;BME280;23841;48.524;1.342;2023-07-28T02:30:53;98494.72;;;21.31;57.05
38033;BME280;23841;48.524;1.342;2023-07-28T02:33:18;98493.84;;;21.30;57.14
38033;BME280;23841;48.524;1.342;2023-07-28T02:35:44;98494.72;;;21.31;56.89
38033;BME280;23841;48.524;1.342;2023-07-28T02:38:09;98489.53;;;21.28;57.03
38033;BME280;23841;48.524;1.342;2023-07-28T02:40:35;98490.28;;;21.30;57.03
38033;BME280;23841;48.524;1.342;2023-07-28T02:43:00;98487.59;;;21.30;57.00
38033;BME280;23841;48.524;1.342;2023-07-28T02:45:26;98480.47;;;21.29;57.00
38033;BME280;23841;48.524;1.342;2023-07-28T02:47:51;98488.56;;;21.29;57.20
38033;BME280;23841;48.524;1.342;2023-07-28T02:50:17;98476.78;;;21.30;56.93
38033;BME280;23841;48.524;1.342;2023-07-28T02:52:42;98474.34;;;21.27;56.88
38033;BME280;23841;48.524;1.342;2023-07-28T02:55:08;98482.19;;;21.30;56.86
38033;BME280;23841;48.524;1.342;2023-07-28T02:57:33;98472.22;;;21.30;57.01
38033;BME280;23841;48.524;1.342;2023-07-28T02:59:59;98469.66;;;21.29;57.01
38033;BME280;23841;48.524;1.342;2023-07-28T03:02:24;98475.94;;;21.29;57.21
38033;BME280;23841;48.524;1.342;2023-07-28T03:04:50;98482.31;;;21.28;57.05
38033;BME280;23841;48.524;1.342;2023-07-28T03:07:15;98472.72;;;21.24;56.96
38033;BME280;23841;48.524;1.342;2023-07-28T03:09:41;98481.34;;;21.29;57.00
38033;BME280;23841;48.524;1.342;2023-07-28T03:12:08;98489.53;;;21.28;57.17
38033;BME280;23841;48.524;1.342;2023-07-28T03:14:33;98481.34;;;21.29;56.99
38033;BME280;23841;48.524;1.342;2023-07-28T03:16:59;98475.06;;;21.29;57.04
38033;BME280;23841;48.524;1.342;2023-07-28T03:19:24;98480.47;;;21.29;56.96
38033;BME280;23841;48.524;1.342;2023-07-28T03:21:49;98477.03;;;21.27;57.01
38033;BME280;23841;48.524;1.342;2023-07-28T03:24:15;98483.28;;;21.27;56.90
38033;BME280;23841;48.524;1.342;2023-07-28T03:26:40;98493.13;;;21.28;56.93
38033;BME280;23841;48.524;1.342;2023-07-28T03:29:06;98484.13;;;21.28;56.99
38033;BME280;23841;48.524;1.342;2023-07-28T03:31:31;98484.13;;;21.28;56.72
38033;BME280;23841;48.524;1.342;2023-07-28T03:34:01;98486.75;;;21.29;56.90
38033;BME280;23841;48.524;1.342;2023-07-28T03:36:28;98489.53;;;21.28;56.97
38033;BME280;23841;48.524;1.342;2023-07-28T03:38:53;98499.38;;;21.29;57.00
38033;BME280;23841;48.524;1.342;2023-07-28T03:41:20;98496.66;;;21.29;56.83
38033;BME280;23841;48.524;1.342;2023-07-28T03:43:45;98500.34;;;21.28;56.87
38033;BME280;23841;48.524;1.342;2023-07-28T03:46:11;98493.25;;;21.27;56.95
38033;BME280;23841;48.524;1.342;2023-07-28T03:48:36;98495.81;;;21.28;57.01
38033;BME280;23841;48.524;1.342;2023-07-28T03:51:02;98482.44;;;21.27;57.36
38033;BME280;23841;48.524;1.342;2023-07-28T03:53:28;98491.41;;;21.27;57.17
38033;BME280;23841;48.524;1.342;2023-07-28T03:55:53;98499.50;;;21.27;57.21
38033;BME280;23841;48.524;1.342;2023-07-28T03:58:24;98500.34;;;21.28;57.45
38033;BME280;23841;48.524;1.342;2023-07-28T04:00:49;98487.84;;;21.27;57.32
38033;BME280;23841;48.524;1.342;2023-07-28T04:03:14;98499.50;;;21.27;57.29
38033;BME280;23841;48.524;1.342;2023-07-28T04:05:40;98496.78;;;21.27;57.29
38033;BME280;23841;48.524;1.342;2023-07-28T04:08:05;98498.53;;;21.28;57.37
38033;BME280;23841;48.524;1.342;2023-07-28T04:10:31;98486.00;;;21.27;57.32
38033;BME280;23841;48.524;1.342;2023-07-28T04:12:56;98483.28;;;21.27;57.36
38033;BME280;23841;48.524;1.342;2023-07-28T04:15:21;98487.84;;;21.27;57.31
38033;BME280;23841;48.524;1.342;2023-07-28T04:17:47;98490.53;;;21.27;57.44
38033;BME280;23841;48.524;1.342;2023-07-28T04:20:12;98485.03;;;21.28;57.42
38033;BME280;23841;48.524;1.342;2023-07-28T04:22:38;98485.28;;;21.25;57.33
38033;BME280;23841;48.524;1.342;2023-07-28T04:25:03;98485.16;;;21.27;57.58
38033;BME280;23841;48.524;1.342;2023-07-28T04:27:29;98482.56;;;21.25;57.38
38033;BME280;23841;48.524;1.342;2023-07-28T04:29:54;98485.16;;;21.27;57.34
38033;BME280;23841;48.524;1.342;2023-07-28T04:32:20;98476.41;;;21.23;57.58
38033;BME280;23841;48.524;1.342;2023-07-28T04:34:45;98482.44;;;21.27;57.36
38033;BME280;23841;48.524;1.342;2023-07-28T04:37:10;98488.81;;;21.26;57.40
38033;BME280;23841;48.524;1.342;2023-07-28T04:39:36;98482.56;;;21.25;57.32
38033;BME280;23841;48.524;1.342;2023-07-28T04:42:01;98482.44;;;21.27;57.44
38033;BME280;23841;48.524;1.342;2023-07-28T04:44:27;98485.28;;;21.25;57.17
38033;BME280;23841;48.524;1.342;2023-07-28T04:46:52;98484.38;;;21.25;57.49
38033;BME280;23841;48.524;1.342;2023-07-28T04:49:18;98489.78;;;21.25;57.38
38033;BME280;23841;48.524;1.342;2023-07-28T04:51:43;98489.66;;;21.26;57.17
38033;BME280;23841;48.524;1.342;2023-07-28T04:54:08;98495.06;;;21.26;57.31
38033;BME280;23841;48.524;1.342;2023-07-28T04:56:34;98492.50;;;21.25;57.41
38033;BME280;23841;48.524;1.342;2023-07-28T04:58:59;98495.94;;;21.27;57.35
38033;BME280;23841;48.524;1.342;2023-07-28T05:01:26;98497.88;;;21.25;57.42
38033;BME280;23841;48.524;1.342;2023-07-28T05:03:51;98500.59;;;21.25;57.66
38033;BME280;23841;48.524;1.342;2023-07-28T05:06:17;98497.88;;;21.25;57.51
38033;BME280;23841;48.524;1.342;2023-07-28T05:08:43;98501.47;;;21.25;57.71
38033;BME280;23841;48.524;1.342;2023-07-28T05:11:08;98496.91;;;21.26;57.59
38033;BME280;23841;48.524;1.342;2023-07-28T05:13:34;98504.16;;;21.25;57.62
38033;BME280;23841;48.524;1.342;2023-07-28T05:15:59;98496.91;;;21.26;57.48
38033;BME280;23841;48.524;1.342;2023-07-28T05:18:25;98497.88;;;21.25;57.51
38033;BME280;23841;48.524;1.342;2023-07-28T05:20:50;98499.75;;;21.24;57.61
38033;BME280;23841;48.524;1.342;2023-07-28T05:23:16;98489.78;;;21.25;57.49
38033;BME280;23841;48.524;1.342;2023-07-28T05:25:41;98494.34;;;21.24;57.67
38033;BME280;23841;48.524;1.342;2023-07-28T05:28:06;98493.47;;;21.24;58.25
38033;BME280;23841;48.524;1.342;2023-07-28T05:30:32;98488.94;;;21.24;57.90
38033;BME280;23841;48.524;1.342;2023-07-28T05:32:57;98494.34;;;21.24;58.18
38033;BME280;23841;48.524;1.342;2023-07-28T05:35:23;98494.34;;;21.24;57.97
38033;BME280;23841;48.524;1.342;2023-07-28T05:37:48;98506.00;;;21.25;58.30
38033;BME280;23841;48.524;1.342;2023-07-28T05:40:13;98505.03;;;21.26;58.31
38033;BME280;23841;48.524;1.342;2023-07-28T05:42:39;98497.16;;;21.23;58.25
38033;BME280;23841;48.524;1.342;2023-07-28T05:45:05;98500.59;;;21.25;58.24
38033;BME280;23841;48.524;1.342;2023-07-28T05:47:30;98494.34;;;21.24;58.24
38033;BME280;23841;48.524;1.342;2023-07-28T05:49:56;98500.72;;;21.23;58.24
38033;BME280;23841;48.524;1.342;2023-07-28T05:52:21;98506.13;;;21.23;58.00
38033;BME280;23841;48.524;1.342;2023-07-28T05:54:50;98501.47;;;21.25;58.18
38033;BME280;23841;48.524;1.342;2023-07-28T05:57:15;98506.00;;;21.25;58.06
38033;BME280;23841;48.524;1.342;2023-07-28T05:59:40;98505.16;;;21.24;58.14
38033;BME280;23841;48.524;1.342;2023-07-28T06:02:06;98503.41;;;21.23;57.96
38033;BME280;23841;48.524;1.342;2023-07-28T06:04:31;98513.25;;;21.24;58.16
38033;BME280;23841;48.524;1.342;2023-07-28T06:06:57;98506.97;;;21.24;58.29
38033;BME280;23841;48.524;1.342;2023-07-28T06:09:22;98515.06;;;21.24;58.36
38033;BME280;23841;48.524;1.342;2023-07-28T06:11:48;98518.66;;;21.24;58.19
38033;BME280;23841;48.524;1.342;2023-07-28T06:14:13;98514.22;;;21.23;58.26
38033;BME280;23841;48.524;1.342;2023-07-28T06:16:39;98524.03;;;21.24;58.22
38033;BME280;23841;48.524;1.342;2023-07-28T06:19:04;98523.16;;;21.24;58.04
38033;BME280;23841;48.524;1.342;2023-07-28T06:21:30;98521.47;;;21.23;58.24
38033;BME280;23841;48.524;1.342;2023-07-28T06:23:55;98528.56;;;21.24;58.18
38033;BME280;23841;48.524;1.342;2023-07-28T06:26:21;98532.16;;;21.24;58.07
38033;BME280;23841;48.524;1.342;2023-07-28T06:28:46;98531.28;;;21.24;58.31
38033;BME280;23841;48.524;1.342;2023-07-28T06:31:12;98531.28;;;21.24;58.39
38033;BME280;23841;48.524;1.342;2023-07-28T06:33:37;98534.97;;;21.23;58.35
38033;BME280;23841;48.524;1.342;2023-07-28T06:36:03;98536.66;;;21.24;58.02
38033;BME280;23841;48.524;1.342;2023-07-28T06:38:29;98532.28;;;21.23;58.28
38033;BME280;23841;48.524;1.342;2023-07-28T06:40:54;98534.97;;;21.23;58.09
38033;BME280;23841;48.524;1.342;2023-07-28T06:43:20;98530.41;;;21.23;58.33
38033;BME280;23841;48.524;1.342;2023-07-28T06:45:46;98540.38;;;21.23;58.19
38033;BME280;23841;48.524;1.342;2023-07-28T06:48:11;98536.66;;;21.24;58.17
38033;BME280;23841;48.524;1.342;2023-07-28T06:50:37;98544.78;;;21.24;58.26
38033;BME280;23841;48.524;1.342;2023-07-28T06:53:02;98533.13;;;21.23;58.27
38033;BME280;23841;48.524;1.342;2023-07-28T06:55:28;98544.78;;;21.24;58.32
38033;BME280;23841;48.524;1.342;2023-07-28T06:57:53;98536.66;;;21.24;58.27
38033;BME280;23841;48.524;1.342;2023-07-28T07:00:19;98543.94;;;21.23;58.29
38033;BME280;23841;48.524;1.342;2023-07-28T07:02:44;98543.06;;;21.23;58.31
38033;BME280;23841;48.524;1.342;2023-07-28T07:05:10;98534.97;;;21.23;58.16
38033;BME280;23841;48.524;1.342;2023-07-28T07:07:36;98544.06;;;21.22;58.20
38033;BME280;23841;48.524;1.342;2023-07-28T07:10:02;98551.06;;;21.24;58.21
38033;BME280;23841;48.524;1.342;2023-07-28T07:12:27;98551.06;;;21.24;58.25
38033;BME280;23841;48.524;1.342;2023-07-28T07:14:53;98557.44;;;21.23;58.11
38033;BME280;23841;48.524;1.342;2023-07-28T07:17:18;98560.97;;;21.24;58.27
38033;BME280;23841;48.524;1.342;2023-07-28T07:19:44;98560.97;;;21.24;58.23
38033;BME280;23841;48.524;1.342;2023-07-28T07:22:09;98562.72;;;21.25;58.60
38033;BME280;23841;48.524;1.342;2023-07-28T07:24:35;98560.97;;;21.24;58.48
38033;BME280;23841;48.524;1.342;2023-07-28T07:27:00;98556.56;;;21.23;58.59
38033;BME280;23841;48.524;1.342;2023-07-28T07:29:26;98560.13;;;21.23;58.25
38033;BME280;23841;48.524;1.342;2023-07-28T07:31:51;98569.09;;;21.24;58.83
38033;BME280;23841;48.524;1.342;2023-07-28T07:34:22;98569.09;;;21.24;58.68
38033;BME280;23841;48.524;1.342;2023-07-28T07:36:48;98566.38;;;21.24;58.76
38033;BME280;23841;48.524;1.342;2023-07-28T07:39:14;98556.56;;;21.23;58.87
38033;BME280;23841;48.524;1.342;2023-07-28T07:41:39;98563.69;;;21.24;58.98
38033;BME280;23841;48.524;1.342;2023-07-28T07:44:05;98558.28;;;21.24;58.92
38033;BME280;23841;48.524;1.342;2023-07-28T07:46:30;98562.72;;;21.25;59.30
38033;BME280;23841;48.524;1.342;2023-07-28T07:48:56;98560.97;;;21.24;59.22
38033;BME280;23841;48.524;1.342;2023-07-28T07:51:21;98571.78;;;21.24;58.98
38033;BME280;23841;48.524;1.342;2023-07-28T07:53:47;98553.75;;;21.24;59.37
38033;BME280;23841;48.524;1.342;2023-07-28T07:56:12;98565.41;;;21.25;59.47
38033;BME280;23841;48.524;1.342;2023-07-28T07:58:38;98561.97;;;21.23;59.71
38033;BME280;23841;48.524;1.342;2023-07-28T08:01:03;98566.38;;;21.24;59.48
38033;BME280;23841;48.524;1.342;2023-07-28T08:03:29;98569.09;;;21.24;59.67
38033;BME280;23841;48.524;1.342;2023-07-28T08:05:55;98574.47;;;21.24;59.77
38033;BME280;23841;48.524;1.342;2023-07-28T08:08:21;98569.09;;;21.24;59.53
38033;BME280;23841;48.524;1.342;2023-07-28T08:10:47;98569.09;;;21.24;59.98
38033;BME280;23841;48.524;1.342;2023-07-28T08:13:13;98568.09;;;21.25;59.23
38033;BME280;23841;48.524;1.342;2023-07-28T08:15:38;98564.56;;;21.24;59.73
38033;BME280;23841;48.524;1.342;2023-07-28T08:18:03;98569.00;;;21.25;60.45
38033;BME280;23841;48.524;1.342;2023-07-28T08:20:29;98569.09;;;21.24;60.27
38033;BME280;23841;48.524;1.342;2023-07-28T08:22:55;98570.94;;;21.23;59.99
38033;BME280;23841;48.524;1.342;2023-07-28T08:25:20;98586.03;;;21.26;60.29
38033;BME280;23841;48.524;1.342;2023-07-28T08:27:48;98583.34;;;21.26;60.34
38033;BME280;23841;48.524;1.342;2023-07-28T08:30:13;98587.00;;;21.25;60.62
38033;BME280;23841;48.524;1.342;2023-07-28T08:32:41;98584.31;;;21.25;59.99
38033;BME280;23841;48.524;1.342;2023-07-28T08:35:07;98577.94;;;21.26;60.29
38033;BME280;23841;48.524;1.342;2023-07-28T08:37:33;98580.66;;;21.26;60.10
38033;BME280;23841;48.524;1.342;2023-07-28T08:39:58;98580.66;;;21.26;60.15
38033;BME280;23841;48.524;1.342;2023-07-28T08:42:24;98585.06;;;21.27;59.84
38033;BME280;23841;48.524;1.342;2023-07-28T08:44:49;98577.94;;;21.26;59.38
38033;BME280;23841;48.524;1.342;2023-07-28T08:47:17;98580.66;;;21.26;59.44
38033;BME280;23841;48.524;1.342;2023-07-28T08:49:44;98578.91;;;21.25;59.95
38033;BME280;23841;48.524;1.342;2023-07-28T08:52:09;98592.16;;;21.28;59.34
38033;BME280;23841;48.524;1.342;2023-07-28T08:54:35;98588.75;;;21.26;59.39
38033;BME280;23841;48.524;1.342;2023-07-28T08:57:00;98590.47;;;21.27;59.61
38033;BME280;23841;48.524;1.342;2023-07-28T08:59:27;98587.78;;;21.27;59.54
38033;BME280;23841;48.524;1.342;2023-07-28T09:01:54;98587.78;;;21.27;59.63
38033;BME280;23841;48.524;1.342;2023-07-28T09:04:21;98597.47;;;21.29;59.42
38033;BME280;23841;48.524;1.342;2023-07-28T09:06:48;98594.88;;;21.28;59.64
38033;BME280;23841;48.524;1.342;2023-07-28T09:09:15;98591.31;;;21.27;59.17
38033;BME280;23841;48.524;1.342;2023-07-28T09:11:51;98593.06;;;21.28;59.44
38033;BME280;23841;48.524;1.342;2023-07-28T09:14:19;98588.50;;;21.29;59.42
38033;BME280;23841;48.524;1.342;2023-07-28T09:16:47;98586.78;;;21.28;59.35
38033;BME280;23841;48.524;1.342;2023-07-28T09:19:13;98585.81;;;21.29;59.53
38033;BME280;23841;48.524;1.342;2023-07-28T09:21:39;98582.13;;;21.30;59.40
38033;BME280;23841;48.524;1.342;2023-07-28T09:24:09;98580.41;;;21.29;59.39
38033;BME280;23841;48.524;1.342;2023-07-28T09:26:44;98575.00;;;21.29;59.55
38033;BME280;23841;48.524;1.342;2023-07-28T09:29:20;98574.16;;;21.28;59.67
38033;BME280;23841;48.524;1.342;2023-07-28T09:31:47;98575.97;;;21.28;59.38
38033;BME280;23841;48.524;1.342;2023-07-28T09:34:27;98581.16;;;21.31;59.70
38033;BME280;23841;48.524;1.342;2023-07-28T09:36:53;98567.78;;;21.29;59.65
38033;BME280;23841;48.524;1.342;2023-07-28T09:39:20;98576.72;;;21.30;59.63
38033;BME280;23841;48.524;1.342;2023-07-28T09:41:46;98575.75;;;21.31;59.59
38033;BME280;23841;48.524;1.342;2023-07-28T09:44:12;98578.34;;;21.33;59.98
38033;BME280;23841;48.524;1.342;2023-07-28T09:46:55;98579.19;;;21.33;60.18
38033;BME280;23841;48.524;1.342;2023-07-28T09:49:42;98584.59;;;21.33;60.33
38033;BME280;23841;48.524;1.342;2023-07-28T09:52:16;98573.78;;;21.33;60.23
38033;BME280;23841;48.524;1.342;2023-07-28T09:54:45;98570.97;;;21.35;60.43
38033;BME280;23841;48.524;1.342;2023-07-28T09:57:20;98573.53;;;21.36;61.02
38033;BME280;23841;48.524;1.342;2023-07-28T09:59:47;98561.03;;;21.35;60.98
38033;BME280;23841;48.524;1.342;2023-07-28T10:02:13;98567.16;;;21.37;61.24
38033;BME280;23841;48.524;1.342;2023-07-28T10:04:39;98567.16;;;21.37;61.29
38033;BME280;23841;48.524;1.342;2023-07-28T10:07:05;98560.91;;;21.37;60.96
38033;BME280;23841;48.524;1.342;2023-07-28T10:09:33;98553.78;;;21.36;61.29
38033;BME280;23841;48.524;1.342;2023-07-28T10:11:59;98560.03;;;21.36;61.18
38033;BME280;23841;48.524;1.342;2023-07-28T10:14:34;98559.81;;;21.39;61.83
38033;BME280;23841;48.524;1.342;2023-07-28T10:17:03;98556.22;;;21.39;61.72
38033;BME280;23841;48.524;1.342;2023-07-28T10:19:33;98557.09;;;21.39;61.44
38033;BME280;23841;48.524;1.342;2023-07-28T10:22:06;98558.81;;;21.40;61.15
38033;BME280;23841;48.524;1.342;2023-07-28T10:24:58;98559.69;;;21.41;61.72
38033;BME280;23841;48.524;1.342;2023-07-28T10:27:43;98556.88;;;21.42;62.32
38033;BME280;23841;48.524;1.342;2023-07-28T10:30:11;98554.16;;;21.42;61.53
38033;BME280;23841;48.524;1.342;2023-07-28T10:32:40;98556.88;;;21.42;61.37
38033;BME280;23841;48.524;1.342;2023-07-28T10:35:22;98556.75;;;21.44;61.41
38033;BME280;23841;48.524;1.342;2023-07-28T10:37:48;98559.31;;;21.45;62.06
38033;BME280;23841;48.524;1.342;2023-07-28T10:40:34;98557.47;;;21.46;61.96
38033;BME280;23841;48.524;1.342;2023-07-28T10:43:00;98556.63;;;21.45;61.75
38033;BME280;23841;48.524;1.342;2023-07-28T10:45:28;98558.34;;;21.46;61.51
38033;BME280;23841;48.524;1.342;2023-07-28T10:47:54;98556.38;;;21.48;61.78
38033;BME280;23841;48.524;1.342;2023-07-28T10:50:27;98557.13;;;21.51;62.28
38033;BME280;23841;48.524;1.342;2023-07-28T10:52:52;98550.00;;;21.49;61.83
38033;BME280;23841;48.524;1.342;2023-07-28T10:55:20;98550.00;;;21.49;61.82
38033;BME280;23841;48.524;1.342;2023-07-28T10:57:47;98549.03;;;21.51;62.05
38033;BME280;23841;48.524;1.342;2023-07-28T11:00:16;98557.03;;;21.52;61.92
38033;BME280;23841;48.524;1.342;2023-07-28T11:02:43;98556.13;;;21.52;61.63
38033;BME280;23841;48.524;1.342;2023-07-28T11:05:13;98557.88;;;21.53;62.10
38033;BME280;23841;48.524;1.342;2023-07-28T11:07:43;98558.75;;;21.53;62.00
38033;BME280;23841;48.524;1.342;2023-07-28T11:10:13;98562.31;;;21.54;61.96
38033;BME280;23841;48.524;1.342;2023-07-28T11:12:40;98566.75;;;21.55;62.03
38033;BME280;23841;48.524;1.342;2023-07-28T11:15:09;98561.34;;;21.55;62.03
38033;BME280;23841;48.524;1.342;2023-07-28T11:17:43;98567.59;;;21.55;62.11
38033;BME280;23841;48.524;1.342;2023-07-28T11:20:19;98569.19;;;21.58;62.29
38033;BME280;23841;48.524;1.342;2023-07-28T11:22:46;98561.09;;;21.58;61.83
38033;BME280;23841;48.524;1.342;2023-07-28T11:25:12;98562.94;;;21.57;62.33
38033;BME280;23841;48.524;1.342;2023-07-28T11:27:39;98567.22;;;21.60;62.08
38033;BME280;23841;48.524;1.342;2023-07-28T11:30:07;98567.13;;;21.61;61.80
38033;BME280;23841;48.524;1.342;2023-07-28T11:32:36;98557.16;;;21.62;61.84
38033;BME280;23841;48.524;1.342;2023-07-28T11:35:06;98567.00;;;21.63;62.37
38033;BME280;23841;48.524;1.342;2023-07-28T11:37:35;98568.69;;;21.64;62.40
38033;BME280;23841;48.524;1.342;2023-07-28T11:40:03;98561.47;;;21.64;61.75
38033;BME280;23841;48.524;1.342;2023-07-28T11:42:36;98563.16;;;21.65;62.61
38033;BME280;23841;48.524;1.342;2023-07-28T11:45:06;98564.91;;;21.67;62.07
38033;BME280;23841;48.524;1.342;2023-07-28T11:47:32;98560.38;;;21.67;62.38
38033;BME280;23841;48.524;1.342;2023-07-28T11:49:58;98564.78;;;21.68;62.51
38033;BME280;23841;48.524;1.342;2023-07-28T11:52:34;98563.78;;;21.69;62.24
38033;BME280;23841;48.524;1.342;2023-07-28T11:55:00;98563.78;;;21.69;62.42
38033;BME280;23841;48.524;1.342;2023-07-28T11:57:27;98575.44;;;21.70;62.74
38033;BME280;23841;48.524;1.342;2023-07-28T11:59:56;98568.34;;;21.69;63.13
38033;BME280;23841;48.524;1.342;2023-07-28T12:02:29;98561.84;;;21.71;62.60
38033;BME280;23841;48.524;1.342;2023-07-28T12:04:55;98559.03;;;21.73;63.11
38033;BME280;23841;48.524;1.342;2023-07-28T12:07:30;98567.00;;;21.74;62.77
38033;BME280;23841;48.524;1.342;2023-07-28T12:09:56;98556.19;;;21.74;62.95
38033;BME280;23841;48.524;1.342;2023-07-28T12:12:28;98552.50;;;21.75;63.38
38033;BME280;23841;48.524;1.342;2023-07-28T12:14:55;98545.84;;;21.68;63.64
38033;BME280;23841;48.524;1.342;2023-07-28T12:17:23;98551.63;;;21.75;63.35
38033;BME280;23841;48.524;1.342;2023-07-28T12:20:02;98551.50;;;21.76;63.40
38033;BME280;23841;48.524;1.342;2023-07-28T12:22:36;98547.09;;;21.75;63.74
38033;BME280;23841;48.524;1.342;2023-07-28T12:25:02;98538.00;;;21.76;62.94
38033;BME280;23841;48.524;1.342;2023-07-28T12:27:27;98539.72;;;21.77;63.53
38033;BME280;23841;48.524;1.342;2023-07-28T12:29:53;98532.47;;;21.78;63.31
38033;BME280;23841;48.524;1.342;2023-07-28T12:32:18;98541.44;;;21.78;63.09
38033;BME280;23841;48.524;1.342;2023-07-28T12:34:44;98545.84;;;21.79;62.99
38033;BME280;23841;48.524;1.342;2023-07-28T12:37:09;98545.84;;;21.79;63.27
38033;BME280;23841;48.524;1.342;2023-07-28T12:39:38;98551.03;;;21.82;63.07
38033;BME280;23841;48.524;1.342;2023-07-28T12:42:07;98550.03;;;21.83;63.15
38033;BME280;23841;48.524;1.342;2023-07-28T12:44:33;98543.66;;;21.85;63.18
38033;BME280;23841;48.524;1.342;2023-07-28T12:46:59;98544.53;;;21.85;62.96
38033;BME280;23841;48.524;1.342;2023-07-28T12:49:24;98542.66;;;21.86;63.30
38033;BME280;23841;48.524;1.342;2023-07-28T12:51:50;98541.69;;;21.87;63.24
38033;BME280;23841;48.524;1.342;2023-07-28T12:54:15;98540.69;;;21.88;63.50
38033;BME280;23841;48.524;1.342;2023-07-28T12:56:41;98552.25;;;21.90;63.72
38033;BME280;23841;48.524;1.342;2023-07-28T12:59:07;98562.09;;;21.91;63.33
38033;BME280;23841;48.524;1.342;2023-07-28T13:01:33;98563.78;;;21.92;63.56
38033;BME280;23841;48.524;1.342;2023-07-28T13:03:59;98559.41;;;21.91;64.08